Bauru, Brazil

12:02 AM BRT on September 03, 2014 (GMT -0300)
Vila Niponica | Change Station
CLOSE
Current Station
Personal Weather Station
Location: Bauru, SãO PAULO
Elevation: 1830 ft
Nearby Weather Stations

Elev 1830 ft 22.34 °S, 49.10 °W | Updated 37 minutes ago

Light Rain
Light Rain
69.1 °F
Feels Like 69.1 °F
N
0.0
Wind Variable Wind from North
Gusts 0.0 mph

Today
High -- | Low -- °F
--% Chance of Precip.
Yesterday
High -- | Low -- °F
Precip. -- in
6:24 AM 6:07 PM
First Quarter, 57% visible
Pressure 29.98 in
Visibility 3.1 miles
Clouds Overcast 3000 ft
Dew Point 69 °F
Humidity 100%
Rainfall 0.00 in
Snow Depth Not available.
UV 0 out of 12
Pollen Not available.
Air Quality Not available.
Flu Activity Not available.
SPECI SBBU 030240Z 18017KT 5000 -RA OVC030 21/21 Q1015 RETSRA

More Conditions Fewer Conditions

Pressure 29.98 in
Visibility 3.1 miles
Clouds Overcast 3000 ft
Dew Point 69 °F
Humidity 100%
Rainfall 0.00 in
Snow Depth Not available.
UV 0 out of 12
Pollen Not available.
Air Quality Not available.
Flu Activity Not available.
SPECI SBBU 030240Z 18017KT 5000 -RA OVC030 21/21 Q1015 RETSRA

More Conditions Fewer Conditions

10-Day Weather Forecast

Almanac

Astronomy

Sep. 03, 2014 Rise Set
Actual Time 6:24 AM BRT 6:07 PM BRT
Civil Twilight 6:01 AM BRT 6:29 PM BRT
Nautical Twilight 5:35 AM BRT 6:55 PM BRT
Astronomical Twilight 5:10 AM BRT 7:21 PM BRT
Moon 12:38 PM BRT 1:14 AM BRT
Length of Visible Light 12h 27m
Length of Day
11h 42m
Tomorrow will be 1m 13s longer.
First Quarter, 57% of the Moon is Illuminated
Sep 2
First Quarter
Sep 8
Full
Sep 15
Last Quarter
Sep 24
New
Oct 1
First Quarter

Yesterday's Extremes

Country Highs Country Lows

Community

WunderPhotos

Upload Photos

1,749,860 photos uploaded!

Nearby

Snow Depth

Not available.

Earthquake Activity

City Distance Mag. Time & Date
No recent earthquake activity has been reported nearby.
Minimum magnitude displayed is 2.5.

Coastal Water Temperatures

Place Temperature
No Stations Reporting

Nearby Weather Stations